createdAt,value
2023-01-18T00:01:04.707Z,1.40
2023-01-18T00:03:36.654Z,1.40
2023-01-18T00:06:27.242Z,1.40
2023-01-18T00:09:13.090Z,1.40
2023-01-18T00:11:42.276Z,1.40
2023-01-18T00:14:15.931Z,1.30
2023-01-18T00:16:44.925Z,1.30
2023-01-18T00:19:21.978Z,1.30
2023-01-18T00:21:56.482Z,1.20
2023-01-18T00:24:25.895Z,1.20
2023-01-18T00:27:11.259Z,1.20
2023-01-18T00:29:41.741Z,1.20
2023-01-18T00:32:11.084Z,1.20
2023-01-18T00:34:39.596Z,1.10
2023-01-18T00:37:13.972Z,1.20
2023-01-18T00:39:42.061Z,1.10
2023-01-18T00:42:30.627Z,1.20
2023-01-18T00:45:01.528Z,1.20
2023-01-18T00:47:30.390Z,1.20
2023-01-18T00:50:02.106Z,1.20
2023-01-18T00:52:31.731Z,1.20
2023-01-18T00:55:00.813Z,1.20
2023-01-18T00:57:28.990Z,1.20
2023-01-18T00:59:59.339Z,1.20
2023-01-18T01:02:28.097Z,1.10
2023-01-18T01:05:13.617Z,1.10
2023-01-18T01:08:03.389Z,1.00
2023-01-18T01:10:33.953Z,1.00
2023-01-18T01:13:24.609Z,0.90
2023-01-18T01:16:22.420Z,0.90
2023-01-18T01:19:08.727Z,0.90
2023-01-18T01:21:54.344Z,0.90
2023-01-18T01:24:48.229Z,0.90
2023-01-18T01:27:18.028Z,0.90
2023-01-18T01:29:46.741Z,0.90
2023-01-18T01:32:18.497Z,0.90
2023-01-18T01:34:48.353Z,0.90
2023-01-18T01:37:25.609Z,0.90
2023-01-18T01:39:58.917Z,0.90
2023-01-18T01:42:27.922Z,0.90
2023-01-18T01:44:55.999Z,1.00
2023-01-18T01:47:33.724Z,1.00
2023-01-18T01:50:10.574Z,0.90
2023-01-18T01:52:42.175Z,1.00
2023-01-18T01:55:19.808Z,1.00
2023-01-18T01:57:52.642Z,1.00
2023-01-18T02:00:39.192Z,1.00
2023-01-18T02:03:13.884Z,1.00
2023-01-18T02:05:45.656Z,1.10
2023-01-18T02:08:41.088Z,1.10
2023-01-18T02:14:00.771Z,1.10
2023-01-18T02:16:37.659Z,1.10
2023-01-18T02:19:19.031Z,1.10
2023-01-18T02:21:47.991Z,1.20
2023-01-18T02:24:35.176Z,1.20
2023-01-18T02:27:07.391Z,1.30
2023-01-18T02:29:54.331Z,1.30
2023-01-18T02:32:33.466Z,1.30
2023-01-18T02:35:13.407Z,1.40
2023-01-18T02:37:48.282Z,1.40
2023-01-18T02:40:20.513Z,1.40
2023-01-18T02:43:10.766Z,1.40
2023-01-18T02:46:01.387Z,1.50
2023-01-18T02:48:40.364Z,1.50
2023-01-18T02:51:14.672Z,1.60
2023-01-18T02:53:46.097Z,1.60
2023-01-18T02:56:25.259Z,1.60
2023-01-18T03:01:55.380Z,1.70
2023-01-18T03:04:30.208Z,1.80
2023-01-18T03:07:11.027Z,1.80
2023-01-18T03:13:13.663Z,1.80
2023-01-18T03:15:46.518Z,1.90
2023-01-18T03:18:20.311Z,1.90
2023-01-18T03:20:56.112Z,2.00
2023-01-18T03:23:45.809Z,2.00
2023-01-18T03:26:16.845Z,2.00
2023-01-18T03:29:05.156Z,2.10
2023-01-18T03:31:58.243Z,2.10
2023-01-18T03:35:10.244Z,2.20
2023-01-18T03:38:03.831Z,2.20
2023-01-18T03:40:46.178Z,2.20
2023-01-18T03:43:30.350Z,2.20
2023-01-18T03:46:00.639Z,2.20
2023-01-18T03:48:28.742Z,2.20
2023-01-18T03:51:01.241Z,2.20
2023-01-18T03:53:32.914Z,2.20
2023-01-18T03:56:04.543Z,2.20
2023-01-18T03:58:35.201Z,2.20
2023-01-18T04:01:04.264Z,2.20
2023-01-18T04:03:32.947Z,2.10
2023-01-18T04:06:01.934Z,2.10
2023-01-18T04:08:30.348Z,2.20
2023-01-18T04:10:58.757Z,2.30
2023-01-18T04:13:28.651Z,2.30
2023-01-18T04:15:56.700Z,2.30
2023-01-18T04:18:26.011Z,2.30
2023-01-18T04:20:56.479Z,2.30
2023-01-18T04:23:25.305Z,2.30
2023-01-18T04:25:53.910Z,2.30
2023-01-18T04:28:26.812Z,2.30
2023-01-18T04:30:57.119Z,2.30
2023-01-18T04:33:26.892Z,2.30
2023-01-18T04:35:55.681Z,2.30
2023-01-18T04:38:23.981Z,2.20
2023-01-18T04:40:51.952Z,2.20
2023-01-18T04:43:20.126Z,2.10
2023-01-18T04:45:54.059Z,2.10
2023-01-18T04:48:24.029Z,2.10
2023-01-18T04:50:52.570Z,2.10
2023-01-18T04:53:21.053Z,2.00
2023-01-18T04:55:49.350Z,2.00
2023-01-18T04:58:17.621Z,2.00
2023-01-18T05:00:45.873Z,2.10
2023-01-18T05:03:14.308Z,2.10
2023-01-18T05:05:43.919Z,2.10
2023-01-18T05:08:12.654Z,2.10
2023-01-18T05:10:40.881Z,2.20
2023-01-18T05:13:09.459Z,2.10
2023-01-18T05:15:38.353Z,2.20
2023-01-18T05:18:07.349Z,2.20
2023-01-18T05:20:35.705Z,2.20
2023-01-18T05:23:11.199Z,2.20
2023-01-18T05:25:39.944Z,2.20
2023-01-18T05:28:08.687Z,2.20
2023-01-18T05:30:39.893Z,2.20
2023-01-18T05:33:08.720Z,2.20
2023-01-18T05:35:37.016Z,2.10
2023-01-18T05:38:06.522Z,2.10
2023-01-18T05:40:35.008Z,2.20
2023-01-18T05:43:03.333Z,2.20
2023-01-18T05:45:31.750Z,2.10
2023-01-18T05:47:59.861Z,2.20
2023-01-18T05:50:28.244Z,2.20
2023-01-18T05:52:58.257Z,2.20
2023-01-18T05:55:28.053Z,2.20
2023-01-18T05:57:56.405Z,2.20
2023-01-18T06:00:24.746Z,2.20
2023-01-18T06:02:55.041Z,2.10
2023-01-18T06:05:23.953Z,2.10
2023-01-18T06:07:52.440Z,2.10
2023-01-18T06:10:20.551Z,2.10
2023-01-18T06:12:50.071Z,2.10
2023-01-18T06:15:18.277Z,2.10
2023-01-18T06:17:52.363Z,2.10
2023-01-18T06:20:20.533Z,2.10
2023-01-18T06:22:48.755Z,2.10
2023-01-18T06:25:17.210Z,2.20
2023-01-18T06:27:45.176Z,2.20
2023-01-18T06:30:16.146Z,2.20
2023-01-18T06:32:44.605Z,2.30
2023-01-18T06:35:12.943Z,2.30
2023-01-18T06:37:42.276Z,2.30
2023-01-18T06:40:11.371Z,2.30
2023-01-18T06:42:39.947Z,2.30
2023-01-18T06:45:08.802Z,2.30
2023-01-18T06:47:39.746Z,2.30
2023-01-18T06:50:08.259Z,2.30
2023-01-18T06:52:36.143Z,2.30
2023-01-18T06:55:04.602Z,2.20
2023-01-18T06:57:32.790Z,2.10
2023-01-18T07:00:02.030Z,2.10
2023-01-18T07:02:30.162Z,2.00
2023-01-18T07:04:59.910Z,2.00
2023-01-18T07:07:28.163Z,1.90
2023-01-18T07:09:58.976Z,1.80
2023-01-18T07:12:26.998Z,1.80
2023-01-18T07:14:54.993Z,1.80
2023-01-18T07:17:23.067Z,1.70
2023-01-18T07:19:51.583Z,1.70
2023-01-18T07:22:21.844Z,1.60
2023-01-18T07:24:49.980Z,1.60
2023-01-18T07:27:18.473Z,1.60
2023-01-18T07:29:48.683Z,1.60
2023-01-18T07:32:17.970Z,1.60
2023-01-18T07:34:45.928Z,1.60
2023-01-18T07:37:14.067Z,1.60
2023-01-18T07:39:43.579Z,1.70
2023-01-18T07:42:12.655Z,1.80
2023-01-18T07:44:40.752Z,1.80
2023-01-18T07:47:09.419Z,1.90
2023-01-18T07:49:37.688Z,1.90
2023-01-18T07:52:06.212Z,2.00
2023-01-18T07:54:34.121Z,2.00
2023-01-18T07:57:03.699Z,2.10
2023-01-18T07:59:33.647Z,2.10
2023-01-18T08:02:03.786Z,2.10
2023-01-18T08:04:32.277Z,2.20
2023-01-18T08:07:01.492Z,2.20
2023-01-18T08:09:30.297Z,2.30
2023-01-18T08:11:58.898Z,2.30
2023-01-18T08:14:28.913Z,2.30
2023-01-18T08:16:57.696Z,2.40
2023-01-18T08:19:25.786Z,2.50
2023-01-18T08:22:01.963Z,2.50
2023-01-18T08:24:30.013Z,2.50
2023-01-18T08:26:58.972Z,2.60
2023-01-18T08:29:28.408Z,2.70
2023-01-18T08:31:56.370Z,2.80
2023-01-18T08:34:26.860Z,2.90
2023-01-18T08:36:54.891Z,3.00
2023-01-18T08:39:23.593Z,3.00
2023-01-18T08:41:52.271Z,3.10
2023-01-18T08:44:20.441Z,3.20
2023-01-18T08:46:50.499Z,3.30
2023-01-18T08:49:18.862Z,3.30
2023-01-18T08:51:47.130Z,3.40
2023-01-18T08:54:15.355Z,3.50
2023-01-18T08:56:43.732Z,3.60
2023-01-18T08:59:12.411Z,3.60
2023-01-18T09:01:40.903Z,3.70
2023-01-18T09:04:10.955Z,3.90
2023-01-18T09:06:39.171Z,3.90
2023-01-18T09:09:07.782Z,4.00
2023-01-18T09:11:35.837Z,4.10
2023-01-18T09:14:04.052Z,4.10
2023-01-18T09:16:32.453Z,4.20
2023-01-18T09:19:01.425Z,4.20
2023-01-18T09:21:31.138Z,4.30
2023-01-18T09:24:02.711Z,4.50
2023-01-18T09:26:31.395Z,4.60
2023-01-18T09:28:59.696Z,4.70
2023-01-18T09:31:28.811Z,4.80
2023-01-18T09:34:06.311Z,5.00
2023-01-18T09:36:47.674Z,5.10
2023-01-18T09:39:16.243Z,5.20
2023-01-18T09:41:46.999Z,5.20
2023-01-18T09:44:19.208Z,5.20
2023-01-18T09:46:54.096Z,5.30
2023-01-18T09:49:25.006Z,5.40
2023-01-18T09:51:59.468Z,5.50
2023-01-18T09:54:34.930Z,5.50
2023-01-18T09:57:06.580Z,5.50
2023-01-18T09:59:36.478Z,5.50
2023-01-18T10:02:05.278Z,5.60
2023-01-18T10:04:36.226Z,5.70
2023-01-18T10:07:07.043Z,5.70
2023-01-18T10:09:37.820Z,5.60
2023-01-18T10:12:15.587Z,5.80
2023-01-18T10:14:46.623Z,6.00
2023-01-18T10:17:18.024Z,6.30
2023-01-18T10:19:46.321Z,6.30
2023-01-18T10:22:20.729Z,6.70
2023-01-18T10:24:52.924Z,7.20
2023-01-18T10:27:39.288Z,7.40
2023-01-18T10:30:22.080Z,7.60
2023-01-18T10:32:53.295Z,8.10
2023-01-18T10:35:29.890Z,8.50
2023-01-18T10:38:02.466Z,8.90
2023-01-18T10:40:30.540Z,9.20
2023-01-18T10:43:04.609Z,9.40
2023-01-18T10:45:34.179Z,9.70
2023-01-18T10:48:13.325Z,10.00
2023-01-18T10:50:42.694Z,10.40
2023-01-18T10:53:27.227Z,10.50
2023-01-18T10:55:57.510Z,10.70
2023-01-18T10:58:32.288Z,10.80
2023-01-18T11:01:02.180Z,10.80
2023-01-18T11:03:34.010Z,11.00
2023-01-18T11:06:04.393Z,10.80
2023-01-18T11:08:35.474Z,10.10
2023-01-18T11:11:04.739Z,9.80
2023-01-18T11:13:34.441Z,9.80
2023-01-18T11:16:07.275Z,9.60
2023-01-18T11:18:42.087Z,9.80
2023-01-18T11:21:10.737Z,10.50
2023-01-18T11:23:43.882Z,10.90
2023-01-18T11:26:30.536Z,11.20
2023-01-18T11:32:23.577Z,11.90
2023-01-18T11:34:52.250Z,13.00
2023-01-18T11:37:36.533Z,13.70
2023-01-18T11:43:04.090Z,13.60
2023-01-18T11:45:35.837Z,13.00
2023-01-18T11:48:07.428Z,13.00
2023-01-18T11:53:26.817Z,12.70
2023-01-18T11:56:05.901Z,12.50
2023-01-18T11:58:36.509Z,12.40
2023-01-18T12:01:12.217Z,11.90
2023-01-18T12:03:50.411Z,11.40
2023-01-18T12:06:28.238Z,11.00
2023-01-18T12:09:05.740Z,10.60
2023-01-18T12:11:41.266Z,10.60
2023-01-18T12:14:16.157Z,10.60
2023-01-18T12:16:53.164Z,10.90
2023-01-18T12:19:54.700Z,11.00
2023-01-18T12:22:45.807Z,10.90
2023-01-18T12:25:26.642Z,10.80
2023-01-18T12:28:01.068Z,10.70
2023-01-18T12:30:39.894Z,10.80
2023-01-18T12:33:14.587Z,10.90
2023-01-18T12:35:49.478Z,10.90
2023-01-18T12:38:19.832Z,10.60
2023-01-18T12:41:03.274Z,10.60
2023-01-18T12:43:38.408Z,10.70
2023-01-18T12:46:10.264Z,10.30
2023-01-18T12:48:44.316Z,9.80
2023-01-18T12:51:14.288Z,9.90
2023-01-18T12:53:46.214Z,9.60
2023-01-18T12:56:17.714Z,9.20
2023-01-18T12:58:47.692Z,8.70
2023-01-18T13:01:21.781Z,8.20
2023-01-18T13:03:53.038Z,8.00
2023-01-18T13:06:22.594Z,7.70
2023-01-18T13:08:55.045Z,7.60
2023-01-18T13:11:25.389Z,7.40
2023-01-18T13:13:55.111Z,7.40
2023-01-18T13:16:40.215Z,7.10
2023-01-18T13:19:10.580Z,7.00
2023-01-18T13:21:44.724Z,7.10
2023-01-18T13:24:20.676Z,7.20
2023-01-18T13:26:49.639Z,7.30
2023-01-18T13:29:24.363Z,7.40
2023-01-18T13:31:54.677Z,7.30
2023-01-18T13:34:28.883Z,7.20
2023-01-18T13:37:13.814Z,7.00
2023-01-18T13:39:47.772Z,6.90
2023-01-18T13:42:26.948Z,7.00
2023-01-18T13:45:17.265Z,7.20
2023-01-18T13:48:04.900Z,7.30
2023-01-18T13:50:42.633Z,7.20
2023-01-18T13:53:38.606Z,7.30
2023-01-18T13:56:22.964Z,7.60
2023-01-18T13:58:53.720Z,7.70
2023-01-18T14:01:23.503Z,7.70
2023-01-18T14:03:52.379Z,7.80
2023-01-18T14:06:26.959Z,7.70
2023-01-18T14:08:57.124Z,7.30
2023-01-18T14:11:27.362Z,7.20
2023-01-18T14:14:03.242Z,7.00
2023-01-18T14:16:34.320Z,6.80
2023-01-18T14:19:04.773Z,6.80
2023-01-18T14:21:40.889Z,6.70
2023-01-18T14:24:30.597Z,6.80
2023-01-18T14:26:59.864Z,6.80
2023-01-18T14:29:34.070Z,6.80
2023-01-18T14:32:03.115Z,6.70
2023-01-18T14:34:36.995Z,6.60
2023-01-18T14:37:24.897Z,6.40
2023-01-18T14:40:07.212Z,6.40
2023-01-18T14:42:36.299Z,6.30
2023-01-18T14:45:05.662Z,6.20
2023-01-18T14:47:34.826Z,6.20
2023-01-18T14:50:04.123Z,6.10
2023-01-18T14:52:37.049Z,6.10
2023-01-18T14:55:05.784Z,6.00
2023-01-18T14:57:35.722Z,5.90
2023-01-18T15:00:09.871Z,5.70
2023-01-18T15:02:42.396Z,5.80
2023-01-18T15:05:12.038Z,5.80
2023-01-18T15:07:47.826Z,5.90
2023-01-18T15:10:18.724Z,5.90
2023-01-18T15:12:48.799Z,5.90
2023-01-18T15:15:21.621Z,6.10
2023-01-18T15:17:50.924Z,6.20
2023-01-18T15:20:19.079Z,6.40
2023-01-18T15:22:52.578Z,6.60
2023-01-18T15:25:25.132Z,7.00
2023-01-18T15:27:53.565Z,7.00
2023-01-18T15:30:23.935Z,7.00
2023-01-18T15:32:55.478Z,7.00
2023-01-18T15:35:25.779Z,7.00
2023-01-18T15:37:55.920Z,6.90
2023-01-18T15:40:28.459Z,6.90
2023-01-18T15:42:59.382Z,6.80
2023-01-18T15:45:30.895Z,6.70
2023-01-18T15:48:00.513Z,6.40
2023-01-18T15:50:32.353Z,6.20
2023-01-18T15:53:06.371Z,5.80
2023-01-18T15:55:35.738Z,5.40
2023-01-18T15:58:05.641Z,5.10
2023-01-18T16:00:38.102Z,4.70
2023-01-18T16:03:06.865Z,4.30
2023-01-18T16:05:34.949Z,3.90
2023-01-18T16:08:17.589Z,3.60
2023-01-18T16:10:50.348Z,3.40
2023-01-18T16:13:35.408Z,3.10
2023-01-18T16:16:14.336Z,2.90
2023-01-18T16:18:44.382Z,2.70
2023-01-18T16:21:15.079Z,2.40
2023-01-18T16:23:47.345Z,2.20
2023-01-18T16:26:16.194Z,2.10
2023-01-18T16:28:44.751Z,2.00
2023-01-18T16:31:13.272Z,1.80
2023-01-18T16:33:48.052Z,1.70
2023-01-18T16:36:17.687Z,1.50
2023-01-18T16:38:50.044Z,1.40
2023-01-18T16:41:19.134Z,1.20
2023-01-18T16:43:48.547Z,1.10
2023-01-18T16:46:16.941Z,1.00
2023-01-18T16:48:46.432Z,0.90
2023-01-18T16:51:17.121Z,0.80
2023-01-18T16:53:45.551Z,0.70
2023-01-18T16:56:16.862Z,0.60
2023-01-18T16:58:44.909Z,0.50
2023-01-18T17:01:14.362Z,0.40
2023-01-18T17:03:42.515Z,0.30
2023-01-18T17:06:15.899Z,0.20
2023-01-18T17:08:43.881Z,0.20
2023-01-18T17:11:13.255Z,0.10
2023-01-18T17:13:42.765Z,0.10
2023-01-18T17:16:15.254Z,-0.10
2023-01-18T17:18:44.562Z,-0.30
2023-01-18T17:21:13.188Z,-0.40
2023-01-18T17:23:41.636Z,-0.40
2023-01-18T17:26:12.880Z,-0.50
2023-01-18T17:28:43.211Z,-0.50
2023-01-18T17:31:12.463Z,-0.40
2023-01-18T17:33:43.576Z,-0.30
2023-01-18T17:36:15.302Z,-0.30
2023-01-18T17:38:43.552Z,-0.30
2023-01-18T17:41:26.379Z,-0.30
2023-01-18T17:43:56.674Z,-0.30
2023-01-18T17:46:24.737Z,-0.20
2023-01-18T17:48:53.169Z,-0.20
2023-01-18T17:51:21.344Z,-0.30
2023-01-18T17:53:49.706Z,-0.30
2023-01-18T17:56:19.352Z,-0.30
2023-01-18T17:58:48.324Z,-0.30
2023-01-18T18:01:18.175Z,-0.40
2023-01-18T18:03:47.673Z,-0.40
2023-01-18T18:06:26.057Z,-0.40
2023-01-18T18:08:58.805Z,-0.50
2023-01-18T18:11:26.993Z,-0.50
2023-01-18T18:13:59.213Z,-0.50
2023-01-18T18:16:32.726Z,-0.50
2023-01-18T18:19:00.887Z,-0.50
2023-01-18T18:21:29.207Z,-0.50
2023-01-18T18:23:57.629Z,-0.60
2023-01-18T18:26:28.972Z,-0.70
2023-01-18T18:29:00.836Z,-0.80
2023-01-18T18:31:31.045Z,-0.80
2023-01-18T18:34:01.003Z,-0.80
2023-01-18T18:36:32.312Z,-0.90
2023-01-18T18:39:02.159Z,-0.90
2023-01-18T18:41:32.961Z,-0.90
2023-01-18T18:44:01.233Z,-0.90
2023-01-18T18:46:34.434Z,-0.90
2023-01-18T18:49:03.607Z,-0.90
2023-01-18T18:51:32.611Z,-1.00
2023-01-18T18:54:01.355Z,-1.00
2023-01-18T18:56:29.716Z,-1.00
2023-01-18T18:58:58.625Z,-1.10
2023-01-18T19:01:29.745Z,-1.10
2023-01-18T19:04:01.037Z,-1.20
2023-01-18T19:06:29.909Z,-1.30
2023-01-18T19:08:58.845Z,-1.30
2023-01-18T19:11:27.526Z,-1.20
2023-01-18T19:13:56.561Z,-1.20
2023-01-18T19:16:25.971Z,-1.10
2023-01-18T19:18:54.493Z,-1.00
2023-01-18T19:21:24.340Z,-1.00
2023-01-18T19:23:52.615Z,-1.10
2023-01-18T19:26:21.114Z,-1.10
2023-01-18T19:28:49.648Z,-1.20
2023-01-18T19:31:18.088Z,-1.20
2023-01-18T19:33:46.058Z,-1.20
2023-01-18T19:36:15.291Z,-1.30
2023-01-18T19:38:48.165Z,-1.30
2023-01-18T19:41:21.166Z,-1.40
2023-01-18T19:43:49.831Z,-1.40
2023-01-18T19:46:17.893Z,-1.50
2023-01-18T19:48:46.226Z,-1.60
2023-01-18T19:51:21.646Z,-1.60
2023-01-18T19:53:53.280Z,-1.60
2023-01-18T19:56:23.416Z,-1.60
2023-01-18T19:58:52.118Z,-1.50
2023-01-18T20:01:35.353Z,-1.50
2023-01-18T20:04:04.431Z,-1.50
2023-01-18T20:06:32.895Z,-1.40
2023-01-18T20:09:05.416Z,-1.40
2023-01-18T20:11:36.203Z,-1.40
2023-01-18T20:14:05.101Z,-1.40
2023-01-18T20:16:33.918Z,-1.40
2023-01-18T20:19:02.360Z,-1.50
2023-01-18T20:21:31.142Z,-1.50
2023-01-18T20:24:02.898Z,-1.60
2023-01-18T20:26:37.267Z,-1.60
2023-01-18T20:29:07.986Z,-1.60
2023-01-18T20:31:37.137Z,-1.70
2023-01-18T20:34:05.892Z,-1.70
2023-01-18T20:36:35.097Z,-1.70
2023-01-18T20:39:04.385Z,-1.70
2023-01-18T20:41:36.426Z,-1.70
2023-01-18T20:44:06.157Z,-1.70
2023-01-18T20:46:34.123Z,-1.70
2023-01-18T20:49:03.536Z,-1.70
2023-01-18T20:51:31.815Z,-1.70
2023-01-18T20:54:00.378Z,-1.70
2023-01-18T20:56:29.902Z,-1.70
2023-01-18T20:59:00.142Z,-1.70
2023-01-18T21:01:32.751Z,-1.70
2023-01-18T21:04:01.973Z,-1.70
2023-01-18T21:06:30.550Z,-1.70
2023-01-18T21:08:59.881Z,-1.70
2023-01-18T21:11:28.746Z,-1.70
2023-01-18T21:13:59.081Z,-1.70
2023-01-18T21:16:29.253Z,-1.70
2023-01-18T21:19:00.220Z,-1.70
2023-01-18T21:21:29.731Z,-1.70
2023-01-18T21:23:58.687Z,-1.70
2023-01-18T21:26:27.423Z,-1.60
2023-01-18T21:28:55.878Z,-1.60
2023-01-18T21:31:24.458Z,-1.60
2023-01-18T21:33:54.644Z,-1.60
2023-01-18T21:36:23.615Z,-1.50
2023-01-18T21:38:52.017Z,-1.50
2023-01-18T21:41:37.564Z,-1.50
2023-01-18T21:44:23.964Z,-1.50
2023-01-18T21:46:53.923Z,-1.50
2023-01-18T21:52:48.668Z,-1.50
2023-01-18T21:55:17.751Z,-1.50
2023-01-18T21:58:06.075Z,-1.50
2023-01-18T22:00:37.321Z,-1.50
2023-01-18T22:03:05.599Z,-1.50
2023-01-18T22:05:35.647Z,-1.50
2023-01-18T22:08:04.002Z,-1.40
2023-01-18T22:10:32.355Z,-1.40
2023-01-18T22:13:03.987Z,-1.50
2023-01-18T22:15:32.026Z,-1.50
2023-01-18T22:18:01.380Z,-1.60
2023-01-18T22:20:31.059Z,-1.60
2023-01-18T22:23:01.192Z,-1.60
2023-01-18T22:25:29.644Z,-1.70
2023-01-18T22:27:58.260Z,-1.70
2023-01-18T22:30:27.391Z,-1.80
2023-01-18T22:32:55.977Z,-1.80
2023-01-18T22:35:24.175Z,-1.90
2023-01-18T22:37:52.455Z,-1.90
2023-01-18T22:40:22.699Z,-1.90
2023-01-18T22:42:51.055Z,-1.90
2023-01-18T22:45:19.064Z,-2.00
2023-01-18T22:47:47.506Z,-2.00
2023-01-18T22:50:16.094Z,-2.00
2023-01-18T22:52:44.250Z,-2.10
2023-01-18T22:55:19.807Z,-2.10
2023-01-18T22:57:50.790Z,-2.10
2023-01-18T23:00:19.533Z,-2.10
2023-01-18T23:02:51.025Z,-2.10
2023-01-18T23:05:20.057Z,-2.00
2023-01-18T23:07:49.692Z,-2.00
2023-01-18T23:10:19.308Z,-2.00
2023-01-18T23:12:56.492Z,-1.90
2023-01-18T23:15:41.963Z,-1.90
2023-01-18T23:18:10.878Z,-1.90
2023-01-18T23:20:39.228Z,-1.90
2023-01-18T23:23:10.801Z,-1.90
2023-01-18T23:25:41.777Z,-1.80
2023-01-18T23:28:15.506Z,-1.80
2023-01-18T23:30:43.582Z,-1.80
2023-01-18T23:33:12.799Z,-1.80
2023-01-18T23:35:41.786Z,-1.80
2023-01-18T23:44:24.204Z,-1.70
2023-01-18T23:47:12.278Z,-1.80
2023-01-18T23:50:02.087Z,-1.80
2023-01-18T23:52:48.956Z,-1.80
2023-01-18T23:55:21.186Z,-1.80
2023-01-18T23:57:50.055Z,-1.80
